Flight Track Log - Related Links

Times and Time Zones

All times are in EDT time to prevent confusion due to time zone crossing. See the CTL21 flight status page for this flight to view local times or setup timezone preferences in your user account.

Time Position Orientation Groundspeed Altitude Reporting Facility
EDT Latitude Longitude Course Direction KTS MPH feet Rate Location/Type
Thu 05:22:13 PM 42.1511 -85.4733 115° Southeast 125 144 3,800  Level Chicago Center
Thu 05:23:15 PM 42.1331 -85.4303 119° Southeast 130 150 4,600 823 Climbing Chicago Center
Thu 05:24:17 PM 42.1153 -85.3875 119° Southeast 130 150 5,500 720 Climbing Chicago Center
Thu 05:25:00 PM 42.0931 -85.2226 120° Southeast  Level FlightAware Approximate
Thu 05:25:20 PM 42.0947 -85.3456 123° Southeast 132 152 6,100  Level Chicago Center
Thu 05:26:00 PM 42.0710 -85.1671 117° Southeast  Level FlightAware Approximate
Thu 05:26:22 PM 42.0758 -85.2978 118° Southeast 140 161 6,800  Level Chicago Center
Thu 05:27:24 PM 42.0578 -85.2489 116° Southeast 143 165 7,500 677 Climbing Chicago Center
Thu 05:28:26 PM 42.0364 -85.1889 116° Southeast 147 169 8,200 629 Climbing Chicago Center
Thu 05:29:28 PM 42.0164 -85.1353 117° Southeast 155 178 8,800 435 Climbing Chicago Center
Thu 05:30:30 PM 41.9953 -85.0819 118° Southeast 160 184 9,100 145 Climbing Chicago Center
Thu 05:31:32 PM 41.9725 -85.0197 116° Southeast 176 203 9,100  Level Chicago Center
Thu 05:32:34 PM 41.9478 -84.9586 119° Southeast 183 211 9,100  Level Chicago Center
Thu 05:33:36 PM 41.9247 -84.8950 116° Southeast 187 215 9,100  Level Chicago Center
Thu 05:34:38 PM 41.9008 -84.8339 118° Southeast 185 213 9,100  Level Chicago Center
Thu 05:35:41 PM 41.8714 -84.7575 117° Southeast 190 219 9,100  Level Chicago Center
Thu 05:36:43 PM 41.8478 -84.6958 117° Southeast 187 215 9,100  Level Chicago Center
Thu 05:37:45 PM 41.8247 -84.6325 116° Southeast 188 216 9,100  Level Chicago Center
Thu 05:38:47 PM 41.8006 -84.5708 118° Southeast 187 215 9,100  Level Chicago Center
Thu 05:39:49 PM 41.7781 -84.5075 115° Southeast 187 215 9,100  Level Chicago Center
Thu 05:40:51 PM 41.7569 -84.4450 114° Southeast 185 213 9,100  Level Chicago Center
Thu 05:41:53 PM 41.7278 -84.3697 117° Southeast 188 216 9,100  Level Chicago Center
Thu 05:42:55 PM 41.7058 -84.3100 116° Southeast 184 212 9,100  Level Chicago Center
Thu 05:43:57 PM 41.6819 -84.2494 118° Southeast 184 212 9,100 -48 Level Chicago Center
Thu 05:45:00 PM 41.6567 -84.1878 119° Southeast 185 213 9,000 -7 Descending Chicago Center
Thu 05:57:46 PM 41.5144 -83.3203 102° East 187 215 9,000  Level Cleveland Center
Thu 05:58:46 PM 41.5033 -83.2589 104° East 182 209 9,000  Level Cleveland Center
Thu 05:59:46 PM 41.4967 -83.1864 97° East 184 212 9,000  Level Cleveland Center
Thu 06:00:46 PM 41.4878 -83.1194 100° East 192 221 9,000 -50 Level Cleveland Center
Thu 06:01:46 PM 41.4808 -83.0528 98° East 202 232 8,900 -50 Descending Cleveland Center
Thu 06:02:46 PM 41.4719 -82.9858 100° East 191 220 8,900  Level Cleveland Center
Thu 06:03:46 PM 41.4650 -82.9247 99° East 186 214 8,900  Level Cleveland Center
Thu 06:04:46 PM 41.4558 -82.8550 100° East 181 208 8,900 54 Level Cleveland Center
Thu 06:05:38 PM 41.4467 -82.7908 101° East 185 213 9,000 64 Climbing Cleveland Center
Thu 06:06:20 PM 41.4414 -82.7436 98° East 186 214 9,000 58 Level Cleveland Center
Thu 06:07:21 PM 41.4342 -82.6769 98° East 186 214 9,100 -49 Climbing Cleveland Center
Thu 06:08:22 PM 41.4356 -82.6078 88° East 186 214 8,900 -344 Descending Cleveland Center
Thu 06:09:23 PM 41.4431 -82.5361 82° East 201 231 8,400 -492 Descending Cleveland Center
Thu 06:10:24 PM 41.4506 -82.4586 83° East 207 238 7,900 -541 Descending Cleveland Center
Thu 06:11:25 PM 41.4664 -82.3842 74° East 200 230 7,300 -738 Descending Cleveland Center
Thu 06:12:26 PM 41.4903 -82.3156 65° Northeast 201 231 6,400 -1,438 Descending Cleveland Center
Thu 06:13:26 PM 41.5164 -82.2386 66° East 232 267 4,400 -1,488 Descending Cleveland Center
Thu 06:14:27 PM 41.5300 -82.1614 77° East 210 242 3,400 -984 Descending Cleveland Center
Thu 06:15:28 PM 41.5497 -82.0897 70° East 201 231 2,400 -787 Descending Cleveland Center
Thu 06:16:29 PM 41.5611 -82.0233 77° East 172 198 1,800 -295 Descending Cleveland Center
Thu 06:17:30 PM 41.5514 -81.9622 102° East 154 177 1,800  Level Cleveland Center
Thu 06:18:31 PM 41.5436 -81.9092 101° East 155 178 1,800  Level Cleveland Center
Thu 06:19:32 PM 41.5339 -81.8536 103° East 151 174 1,800 -50 Level Cleveland Center
Thu 06:20:32 PM 41.5261 -81.7981 101° East 154 177 1,700 -149 Descending Cleveland Center
Thu 06:21:33 PM 41.5183 -81.7478 102° East 137 158 1,500 -197 Descending Cleveland Center

Login

Don't have an account? Register now (free) for customized features, flight alerts, and more!